CheckWX is a tool to help pilots better visualize weather data.  It is not intended as a substitute for an official pre-flight weather briefing.

11:41:25 UTC

KGYB METAR
Giddings-Lee County Airport
Giddings, Texas, USA
Current

6 mins ago

KGYB 261135Z AUTO 32013G19KT 10SM CLR 07/M01 A3035 RMK AO2 T00701008
Observed
Feb-26 @ 11:35 UTC
Wind
  • 320° at 13 KTS
  • Gusting to 19 KTS
Visibility
10 SM
Flight Rules
VFR
Cloud Levels
  • Clear skies
Temperature
C / 45°F
Dewpoint
-1°C / 30°F
Humidity
57%
Altimeter
30.35" Hg
Pressure
1027.82 hPa
Previous

26 mins ago

KGYB 261115Z AUTO 33015G23KT 10SM CLR 07/M01 A3034 RMK AO2 T00721010
Observed
Feb-26 @ 11:15 UTC
Wind
  • 330° at 15 KTS
  • Gusting to 23 KTS
Visibility
10 SM
Flight Rules
VFR
Cloud Levels
  • Clear skies
Temperature
C / 45°F
Dewpoint
-1°C / 30°F
Humidity
57%
Altimeter
30.34" Hg
Pressure
1027.42 hPa
Previous

46 mins ago

KGYB 261055Z AUTO 33016G22KT 10SM CLR 08/M01 A3033 RMK AO2 T00751007
Observed
Feb-26 @ 10:55 UTC
Wind
  • 330° at 16 KTS
  • Gusting to 22 KTS
Visibility
10 SM
Flight Rules
VFR
Cloud Levels
  • Clear skies
Temperature
C / 46°F
Dewpoint
-1°C / 30°F
Humidity
53%
Altimeter
30.33" Hg
Pressure
1027.12 hPa